createdAt,value
2022-11-16T00:01:32.774Z,99995.59
2022-11-16T00:04:01.247Z,99998.22
2022-11-16T00:06:28.831Z,100001.69
2022-11-16T00:09:17.081Z,99996.44
2022-11-16T00:11:51.097Z,99992.94
2022-11-16T00:14:18.624Z,99991.16
2022-11-16T00:16:45.097Z,99988.63
2022-11-16T00:19:15.314Z,99992.94
2022-11-16T00:21:42.133Z,99995.59
2022-11-16T00:24:12.271Z,99987.81
2022-11-16T00:26:38.703Z,99993.91
2022-11-16T00:29:05.122Z,99992.13
2022-11-16T00:31:31.550Z,99996.44
2022-11-16T00:33:57.941Z,99989.47
2022-11-16T00:36:24.327Z,99988.63
2022-11-16T00:38:53.718Z,99999.16
2022-11-16T00:41:20.066Z,99987.81
2022-11-16T00:43:46.491Z,99989.47
2022-11-16T00:46:12.868Z,99987.81
2022-11-16T00:48:39.361Z,99975.59
2022-11-16T00:51:06.003Z,99973.81
2022-11-16T00:53:32.465Z,99985.03
2022-11-16T00:55:59.109Z,99980.63
2022-11-16T00:58:25.589Z,99971.88
2022-11-16T01:00:51.985Z,99983.25
2022-11-16T01:03:18.488Z,99970.09
2022-11-16T01:05:44.967Z,99960.38
2022-11-16T01:08:11.582Z,99972.72
2022-11-16T01:10:42.047Z,99970.91
2022-11-16T01:13:08.499Z,99980.63
2022-11-16T01:15:34.870Z,99978.09
2022-11-16T01:18:01.250Z,99964.81
2022-11-16T01:20:29.592Z,99963.97
2022-11-16T01:22:56.386Z,99964.81
2022-11-16T01:25:22.787Z,99970.91
2022-11-16T01:27:50.861Z,99969.97
2022-11-16T01:30:17.373Z,99973.41
2022-11-16T01:32:43.829Z,99960.25
2022-11-16T01:35:16.378Z,99961.22
2022-11-16T01:37:42.811Z,99955.97
2022-11-16T01:40:10.459Z,99959.53
2022-11-16T01:42:36.871Z,99950.69
2022-11-16T01:45:15.040Z,99956.78
2022-11-16T01:47:48.858Z,99956.78
2022-11-16T01:50:18.793Z,99950.69
2022-11-16T01:53:05.872Z,99960.25
2022-11-16T01:55:35.613Z,99955.97
2022-11-16T01:58:02.777Z,99956.78
2022-11-16T02:00:30.491Z,99954.00
2022-11-16T02:02:56.974Z,99943.59
2022-11-16T02:05:40.195Z,99944.44
2022-11-16T02:08:46.366Z,99947.06
2022-11-16T02:11:33.191Z,99937.38
2022-11-16T02:14:13.023Z,99929.59
2022-11-16T02:16:55.728Z,99936.66
2022-11-16T02:19:36.051Z,99927.94
2022-11-16T02:22:27.182Z,99926.25
2022-11-16T02:24:59.533Z,99929.59
2022-11-16T02:27:50.246Z,99918.22
2022-11-16T02:30:18.901Z,99924.34
2022-11-16T02:32:52.396Z,99927.94
2022-11-16T02:35:28.631Z,99922.66
2022-11-16T02:38:02.859Z,99924.34
2022-11-16T02:40:31.895Z,99920.72
2022-11-16T02:43:04.176Z,99918.06
2022-11-16T02:45:36.345Z,99923.34
2022-11-16T02:48:11.653Z,99923.34
2022-11-16T02:50:39.135Z,99918.06
2022-11-16T02:53:08.585Z,99917.13
2022-11-16T02:55:36.329Z,99924.34
2022-11-16T02:58:06.933Z,99915.56
2022-11-16T03:00:43.806Z,99925.28
2022-11-16T03:03:19.898Z,99917.38
2022-11-16T03:06:04.774Z,99920.72
2022-11-16T03:08:36.281Z,99922.53
2022-11-16T03:11:25.125Z,99923.34
2022-11-16T03:13:57.491Z,99920.72
2022-11-16T03:16:31.770Z,99925.16
2022-11-16T03:19:02.340Z,99930.28
2022-11-16T03:21:58.043Z,99926.72
2022-11-16T03:24:25.095Z,99930.44
2022-11-16T03:27:13.107Z,99933.19
2022-11-16T03:29:54.316Z,99934.88
2022-11-16T03:32:30.333Z,99936.53
2022-11-16T03:35:02.510Z,99934.88
2022-11-16T03:37:31.265Z,99929.59
2022-11-16T03:40:01.164Z,99931.25
2022-11-16T03:42:28.690Z,99933.06
2022-11-16T03:44:58.962Z,99933.88
2022-11-16T03:47:25.367Z,99936.53
2022-11-16T03:49:51.733Z,99939.16
2022-11-16T03:52:18.788Z,99945.41
2022-11-16T03:54:47.420Z,99939.28
2022-11-16T03:57:18.077Z,99937.50
2022-11-16T03:59:45.509Z,99935.69
2022-11-16T04:02:12.042Z,99944.44
2022-11-16T04:04:57.186Z,99945.41
2022-11-16T04:07:42.077Z,99950.69
2022-11-16T04:10:28.795Z,99955.09
2022-11-16T04:13:14.587Z,99950.78
2022-11-16T04:15:59.907Z,99952.59
2022-11-16T04:18:44.640Z,99954.38
2022-11-16T04:21:50.298Z,99954.28
2022-11-16T04:24:21.846Z,99947.31
2022-11-16T04:27:15.449Z,99949.97
2022-11-16T04:29:48.008Z,99955.22
2022-11-16T04:32:33.450Z,99961.31
2022-11-16T04:35:18.421Z,99952.59
2022-11-16T04:37:52.364Z,99958.81
2022-11-16T04:40:21.253Z,99972.00
2022-11-16T04:42:58.383Z,99971.19
2022-11-16T04:45:44.498Z,99972.94
2022-11-16T04:48:11.529Z,99959.78
2022-11-16T04:50:38.395Z,99969.50
2022-11-16T04:53:05.907Z,99970.31
2022-11-16T04:55:33.171Z,99968.63
2022-11-16T04:58:00.430Z,99968.63
2022-11-16T05:00:26.841Z,99974.91
2022-11-16T05:02:58.198Z,99977.53
2022-11-16T05:05:27.301Z,99975.72
2022-11-16T05:07:53.768Z,99971.53
2022-11-16T05:10:20.126Z,99980.25
2022-11-16T05:12:46.524Z,99975.97
2022-11-16T05:15:12.917Z,99983.88
2022-11-16T05:17:39.710Z,99983.16
2022-11-16T05:20:25.231Z,99990.25
2022-11-16T05:22:55.855Z,99995.50
2022-11-16T05:25:22.534Z,99993.81
2022-11-16T05:27:49.074Z,99994.78
2022-11-16T05:30:17.748Z,99986.06
2022-11-16T05:32:46.905Z,99993.97
2022-11-16T05:35:13.372Z,99990.47
2022-11-16T05:37:39.814Z,99995.75
2022-11-16T05:40:07.458Z,99999.22
2022-11-16T05:42:33.930Z,99996.59
2022-11-16T05:45:00.430Z,100001.00
2022-11-16T05:47:26.884Z,100008.78
2022-11-16T05:49:53.296Z,100009.75
2022-11-16T05:52:21.691Z,100012.41
2022-11-16T05:54:48.136Z,100020.31
2022-11-16T05:57:15.455Z,100016.59
2022-11-16T05:59:42.638Z,100017.41
2022-11-16T06:02:09.157Z,100016.44
2022-11-16T06:04:38.768Z,100027.81
2022-11-16T06:07:05.363Z,100026.88
2022-11-16T06:09:31.929Z,100019.69
2022-11-16T06:11:58.287Z,100011.78
2022-11-16T06:14:24.780Z,100017.75
2022-11-16T06:16:53.691Z,100020.38
2022-11-16T06:19:20.247Z,100008.88
2022-11-16T06:21:46.626Z,100012.25
2022-11-16T06:24:13.193Z,100012.25
2022-11-16T06:26:39.729Z,100008.66
2022-11-16T06:29:09.125Z,100003.38
2022-11-16T06:31:35.502Z,100005.88
2022-11-16T06:34:01.895Z,100011.97
2022-11-16T06:36:28.737Z,100013.66
2022-11-16T06:38:55.212Z,100016.16
2022-11-16T06:41:24.468Z,100018.81
2022-11-16T06:43:50.974Z,100021.56
2022-11-16T06:46:19.832Z,100029.47
2022-11-16T06:48:46.305Z,100036.66
2022-11-16T06:51:12.704Z,100033.31
2022-11-16T06:53:39.194Z,100039.41
2022-11-16T06:56:06.696Z,100033.44
2022-11-16T06:58:33.957Z,100034.41
2022-11-16T07:01:08.263Z,100039.91
2022-11-16T07:03:34.769Z,100049.63
2022-11-16T07:06:09.530Z,100041.00
2022-11-16T07:08:36.845Z,100041.94
2022-11-16T07:11:07.071Z,100051.78
2022-11-16T07:13:34.559Z,100056.19
2022-11-16T07:16:11.686Z,100047.59
2022-11-16T07:18:40.704Z,100058.97
2022-11-16T07:21:07.945Z,100060.63
2022-11-16T07:23:34.826Z,100058.00
2022-11-16T07:26:03.175Z,100069.50
2022-11-16T07:28:30.163Z,100066.88
2022-11-16T07:31:02.495Z,100073.09
2022-11-16T07:33:29.642Z,100073.22
2022-11-16T07:36:09.991Z,100085.56
2022-11-16T07:38:36.672Z,100079.44
2022-11-16T07:41:11.673Z,100088.31
2022-11-16T07:43:38.117Z,100085.78
2022-11-16T07:46:45.359Z,100079.81
2022-11-16T07:48:51.452Z,100086.78
2022-11-16T07:51:18.934Z,100098.38
2022-11-16T07:53:48.421Z,100107.94
2022-11-16T07:56:14.846Z,100103.66
2022-11-16T07:58:41.206Z,100116.81
2022-11-16T08:01:11.390Z,100116.22
2022-11-16T08:03:41.062Z,100114.53
2022-11-16T08:06:11.703Z,100123.38
2022-11-16T08:08:38.308Z,100126.97
2022-11-16T08:11:07.867Z,100128.06
2022-11-16T08:13:35.745Z,100125.53
2022-11-16T08:16:03.942Z,100126.50
2022-11-16T08:18:31.830Z,100129.13
2022-11-16T08:21:00.117Z,100130.94
2022-11-16T08:23:26.537Z,100130.94
2022-11-16T08:25:57.535Z,100138.00
2022-11-16T08:28:24.240Z,100138.00
2022-11-16T08:30:54.036Z,100144.19
2022-11-16T08:33:24.410Z,100140.69
2022-11-16T08:35:52.095Z,100136.28
2022-11-16T08:38:18.607Z,100139.78
2022-11-16T08:40:50.842Z,100140.69
2022-11-16T08:43:17.312Z,100142.50
2022-11-16T08:45:48.451Z,100139.88
2022-11-16T08:48:14.860Z,100149.47
2022-11-16T08:51:02.386Z,100152.09
2022-11-16T08:53:27.818Z,100145.06
2022-11-16T08:55:54.279Z,100153.81
2022-11-16T08:58:20.685Z,100152.94
2022-11-16T09:00:47.133Z,100147.69
2022-11-16T09:03:13.532Z,100155.59
2022-11-16T09:05:40.291Z,100148.53
2022-11-16T09:08:10.733Z,100151.88
2022-11-16T09:10:37.759Z,100146.59
2022-11-16T09:13:04.252Z,100155.47
2022-11-16T09:15:31.756Z,100151.88
2022-11-16T09:17:58.578Z,100152.81
2022-11-16T09:20:28.143Z,100152.81
2022-11-16T09:22:54.544Z,100158.84
2022-11-16T09:25:27.289Z,100156.94
2022-11-16T09:27:59.839Z,100167.47
2022-11-16T09:30:26.224Z,100161.22
2022-11-16T09:32:52.632Z,100163.84
2022-11-16T09:35:20.908Z,100160.50
2022-11-16T09:37:47.475Z,100163.03
2022-11-16T09:40:14.051Z,100162.91
2022-11-16T09:42:52.577Z,100166.38
2022-11-16T09:45:31.701Z,100170.78
2022-11-16T09:48:06.083Z,100174.28
2022-11-16T09:50:47.194Z,100169.72
2022-11-16T09:53:20.728Z,100179.31
2022-11-16T09:56:21.900Z,100178.22
2022-11-16T09:59:07.768Z,100172.97
2022-11-16T10:01:41.606Z,100172.97
2022-11-16T10:04:15.856Z,100172.72
2022-11-16T10:07:04.041Z,100168.44
2022-11-16T10:09:30.730Z,100170.94
2022-11-16T10:12:35.552Z,100168.91
2022-11-16T10:15:12.772Z,100174.88
2022-11-16T10:18:20.032Z,100167.56
2022-11-16T10:20:56.848Z,100167.44
2022-11-16T10:23:49.862Z,100167.31
2022-11-16T10:26:22.285Z,100177.53
2022-11-16T10:29:00.908Z,100168.66
2022-11-16T10:31:37.721Z,100172.13
2022-11-16T10:34:09.539Z,100164.13
2022-11-16T10:36:37.605Z,100172.72
2022-11-16T10:39:13.368Z,100171.53
2022-11-16T10:41:46.492Z,100174.75
2022-11-16T10:44:34.240Z,100170.91
2022-11-16T10:47:04.817Z,100173.06
2022-11-16T11:02:21.552Z,100169.78
2022-11-16T11:05:20.391Z,100167.88
2022-11-16T11:07:56.844Z,100169.31
2022-11-16T11:10:33.975Z,100167.34
2022-11-16T11:13:12.763Z,100170.72
2022-11-16T11:15:41.700Z,100166.88
2022-11-16T11:18:20.600Z,100167.47
2022-11-16T11:21:04.048Z,100169.75
2022-11-16T11:23:36.975Z,100162.28
2022-11-16T11:26:03.715Z,100160.94
2022-11-16T11:28:36.431Z,100157.06
2022-11-16T11:31:25.948Z,100145.19
2022-11-16T11:33:57.285Z,100150.94
2022-11-16T11:36:27.384Z,100136.41
2022-11-16T11:39:01.784Z,100131.44
2022-11-16T11:41:33.576Z,100138.97
2022-11-16T11:44:17.845Z,100127.91
2022-11-16T11:49:52.262Z,100122.44
2022-11-16T11:52:28.500Z,100115.91
2022-11-16T11:54:56.188Z,100119.97
2022-11-16T11:57:24.953Z,100116.94
2022-11-16T11:59:54.910Z,100112.22
2022-11-16T12:02:38.393Z,100111.13
2022-11-16T12:05:34.915Z,100130.59
2022-11-16T12:08:24.573Z,100123.75
2022-11-16T12:10:57.955Z,100121.13
2022-11-16T12:13:43.147Z,100128.09
2022-11-16T12:16:34.840Z,100122.81
2022-11-16T12:19:39.575Z,100121.13
2022-11-16T12:22:30.393Z,100121.84
2022-11-16T12:25:34.474Z,100119.44
2022-11-16T12:28:06.984Z,100121.13
2022-11-16T12:30:51.331Z,100124.72
2022-11-16T12:33:37.366Z,100122.09
2022-11-16T12:36:22.547Z,100114.16
2022-11-16T12:39:23.824Z,100120.41
2022-11-16T12:41:59.166Z,100112.47
2022-11-16T12:44:51.908Z,100109.84
2022-11-16T12:47:31.518Z,100101.91
2022-11-16T12:50:04.174Z,100105.41
2022-11-16T12:52:39.930Z,100099.28
2022-11-16T12:55:43.084Z,100089.69
2022-11-16T12:58:35.758Z,100088.03
2022-11-16T13:01:26.099Z,100087.31
2022-11-16T13:03:55.904Z,100089.94
2022-11-16T13:06:33.128Z,100083.84
2022-11-16T13:09:17.291Z,100087.44
2022-11-16T13:11:53.660Z,100087.44
2022-11-16T13:14:41.978Z,100082.16
2022-11-16T13:17:14.665Z,100079.66
2022-11-16T13:19:43.776Z,100073.53
2022-11-16T13:22:27.712Z,100081.59
2022-11-16T13:25:14.709Z,100067.69
2022-11-16T13:27:49.898Z,100068.50
2022-11-16T13:30:22.523Z,100065.06
2022-11-16T13:33:18.361Z,100072.13
2022-11-16T13:35:44.817Z,100075.84
2022-11-16T13:38:13.308Z,100075.16
2022-11-16T13:40:40.924Z,100073.50
2022-11-16T13:43:10.110Z,100077.91
2022-11-16T13:45:48.843Z,100066.53
2022-11-16T13:48:22.204Z,100074.59
2022-11-16T13:50:59.485Z,100069.41
2022-11-16T13:56:17.854Z,100067.88
2022-11-16T13:58:58.361Z,100062.59
2022-11-16T14:01:26.713Z,100060.09
2022-11-16T14:04:31.700Z,100050.50
2022-11-16T14:07:02.580Z,100050.63
2022-11-16T14:09:53.932Z,100047.16
2022-11-16T14:12:43.398Z,100053.41
2022-11-16T14:15:17.573Z,100049.09
2022-11-16T14:18:04.556Z,100040.34
2022-11-16T14:20:56.997Z,100043.13
2022-11-16T14:23:36.456Z,100034.47
2022-11-16T14:26:02.882Z,100034.47
2022-11-16T14:28:44.470Z,100034.47
2022-11-16T14:31:47.997Z,100029.34
2022-11-16T14:34:22.214Z,100031.13
2022-11-16T14:36:52.555Z,100033.91
2022-11-16T14:39:37.817Z,100030.44
2022-11-16T14:42:15.157Z,100034.03
2022-11-16T14:44:42.350Z,100029.72
2022-11-16T14:47:25.402Z,100025.41
2022-11-16T14:49:53.256Z,100018.47
2022-11-16T14:52:30.175Z,100013.31
2022-11-16T14:55:01.791Z,100013.31
2022-11-16T14:57:28.506Z,100017.00
2022-11-16T15:00:17.849Z,100005.63
2022-11-16T15:02:51.814Z,100002.16
2022-11-16T15:05:27.056Z,100004.91
2022-11-16T15:07:56.597Z,99998.00
2022-11-16T15:10:28.480Z,99996.31
2022-11-16T15:12:57.724Z,99999.09
2022-11-16T15:15:27.236Z,99995.59
2022-11-16T15:17:59.633Z,99993.91
2022-11-16T15:20:29.017Z,99986.84
2022-11-16T15:22:58.517Z,99986.13
2022-11-16T15:25:24.960Z,99992.25
2022-11-16T15:27:51.836Z,99981.00
2022-11-16T15:30:25.048Z,99962.66
2022-11-16T15:32:53.000Z,99970.44
2022-11-16T15:35:30.647Z,99968.91
2022-11-16T15:38:47.186Z,99969.84
2022-11-16T15:41:19.657Z,99972.63
2022-11-16T15:44:13.223Z,99961.22
2022-11-16T15:46:41.395Z,99957.91
2022-11-16T15:49:32.302Z,99951.91
2022-11-16T15:52:00.819Z,99938.72
2022-11-16T15:54:29.475Z,99937.03
2022-11-16T15:57:11.671Z,99930.22
2022-11-16T15:59:38.184Z,99925.94
2022-11-16T16:02:04.851Z,99926.91
2022-11-16T16:04:37.424Z,99927.84
2022-11-16T16:07:04.138Z,99925.34
2022-11-16T16:09:40.017Z,99912.31
2022-11-16T16:12:23.142Z,99887.84
2022-11-16T16:14:51.534Z,99907.13
2022-11-16T16:17:29.911Z,99928.50
2022-11-16T16:20:06.607Z,99931.28
2022-11-16T16:22:36.319Z,99926.16
2022-11-16T16:25:06.900Z,99929.75
2022-11-16T16:27:39.703Z,99920.16
2022-11-16T16:30:14.545Z,99919.44
2022-11-16T16:32:41.067Z,99914.31
2022-11-16T16:35:15.138Z,99912.75
2022-11-16T16:37:41.482Z,99904.97
2022-11-16T16:40:08.557Z,99899.84
2022-11-16T16:42:35.092Z,99894.72
2022-11-16T16:45:02.429Z,99900.94
2022-11-16T16:47:29.075Z,99906.34
2022-11-16T16:49:55.660Z,99903.00
2022-11-16T16:52:22.166Z,99895.22
2022-11-16T16:54:48.530Z,99897.13
2022-11-16T16:57:16.531Z,99901.59
2022-11-16T16:59:46.390Z,99894.66
2022-11-16T17:02:13.059Z,99886.88
2022-11-16T17:04:41.703Z,99889.63
2022-11-16T17:07:08.072Z,99880.16
2022-11-16T17:09:34.665Z,99871.44
2022-11-16T17:12:01.027Z,99875.97
2022-11-16T17:14:27.403Z,99878.63
2022-11-16T17:17:02.762Z,99877.94
2022-11-16T17:19:29.920Z,99876.97
2022-11-16T17:21:56.363Z,99875.44
2022-11-16T17:24:22.924Z,99870.41
2022-11-16T17:26:49.499Z,99871.34
2022-11-16T17:29:16.203Z,99877.63
2022-11-16T17:31:44.759Z,99871.50
2022-11-16T17:34:13.689Z,99871.75
2022-11-16T17:36:44.004Z,99870.09
2022-11-16T17:39:10.605Z,99877.16
2022-11-16T17:41:37.449Z,99870.34
2022-11-16T17:44:04.977Z,99872.28
2022-11-16T17:46:31.921Z,99875.88
2022-11-16T17:48:58.503Z,99869.91
2022-11-16T17:51:25.957Z,99866.56
2022-11-16T17:53:52.897Z,99854.34
2022-11-16T17:56:27.613Z,99854.47
2022-11-16T17:58:58.491Z,99862.50
2022-11-16T18:01:26.077Z,99853.06
2022-11-16T18:03:52.578Z,99852.22
2022-11-16T18:06:20.848Z,99851.50
2022-11-16T18:08:48.202Z,99846.34
2022-11-16T18:11:19.533Z,99849.13
2022-11-16T18:13:46.855Z,99851.88
2022-11-16T18:16:15.013Z,99847.56
2022-11-16T18:18:43.877Z,99839.81
2022-11-16T18:21:14.598Z,99833.00
2022-11-16T18:23:48.126Z,99837.44
2022-11-16T18:26:16.836Z,99841.03
2022-11-16T18:28:47.384Z,99846.53
2022-11-16T18:31:16.047Z,99844.91
2022-11-16T18:33:49.400Z,99842.25
2022-11-16T18:36:16.748Z,99842.38
2022-11-16T18:38:43.183Z,99846.81
2022-11-16T18:41:12.252Z,99843.44
2022-11-16T18:43:39.613Z,99843.44
2022-11-16T18:46:06.423Z,99834.84
2022-11-16T18:48:33.232Z,99827.91
2022-11-16T18:51:05.847Z,99820.97
2022-11-16T18:53:33.045Z,99821.94
2022-11-16T18:55:59.732Z,99818.75
2022-11-16T19:01:16.579Z,99814.56
2022-11-16T19:03:43.736Z,99803.16
2022-11-16T19:06:10.727Z,99806.66
2022-11-16T19:08:39.041Z,99798.16
2022-11-16T19:11:11.478Z,99803.56
2022-11-16T19:13:41.080Z,99795.66
2022-11-16T19:16:11.465Z,99782.56
2022-11-16T19:18:37.959Z,99781.75
2022-11-16T19:21:08.837Z,99781.75
2022-11-16T19:23:40.052Z,99760.97
2022-11-16T19:26:07.264Z,99753.06
2022-11-16T19:28:41.866Z,99751.38
2022-11-16T19:31:10.911Z,99743.63
2022-11-16T19:33:37.742Z,99743.72
2022-11-16T19:36:07.420Z,99735.00
2022-11-16T19:38:36.211Z,99730.69
2022-11-16T19:41:02.684Z,99729.88
2022-11-16T19:43:30.660Z,99717.78
2022-11-16T19:46:05.226Z,99721.25
2022-11-16T19:48:32.534Z,99714.31
2022-11-16T19:51:10.171Z,99708.22
2022-11-16T19:53:37.668Z,99696.84
2022-11-16T19:56:05.959Z,99696.00
2022-11-16T19:58:34.405Z,99692.44
2022-11-16T20:01:06.269Z,99685.47
2022-11-16T20:03:33.793Z,99680.22
2022-11-16T20:06:08.146Z,99677.72
2022-11-16T20:08:35.456Z,99663.72
2022-11-16T20:11:01.958Z,99663.72
2022-11-16T20:13:28.381Z,99664.69
2022-11-16T20:15:54.795Z,99655.94
2022-11-16T20:18:21.205Z,99650.69
2022-11-16T20:20:47.869Z,99646.38
2022-11-16T20:23:15.540Z,99635.16
2022-11-16T20:25:41.936Z,99636.94
2022-11-16T20:28:09.472Z,99642.19
2022-11-16T20:30:36.004Z,99638.88
2022-11-16T20:33:02.338Z,99636.38
2022-11-16T20:35:28.802Z,99639.25
2022-11-16T20:37:55.370Z,99644.28
2022-11-16T20:40:21.882Z,99627.63
2022-11-16T20:42:48.372Z,99629.44
2022-11-16T20:45:14.939Z,99622.50
2022-11-16T20:47:41.447Z,99614.75
2022-11-16T20:50:08.219Z,99618.34
2022-11-16T20:52:38.287Z,99603.38
2022-11-16T20:55:09.301Z,99594.66
2022-11-16T20:57:35.708Z,99588.56
2022-11-16T21:00:02.059Z,99589.53
2022-11-16T21:02:28.678Z,99596.56
2022-11-16T21:05:00.075Z,99588.13
2022-11-16T21:07:29.152Z,99587.13
2022-11-16T21:10:14.189Z,99587.13
2022-11-16T21:12:58.992Z,99580.91
2022-11-16T21:15:25.384Z,99559.03
2022-11-16T21:17:51.851Z,99554.03
2022-11-16T21:20:27.407Z,99543.50
2022-11-16T21:22:54.487Z,99537.41
2022-11-16T21:25:20.954Z,99542.66
2022-11-16T21:27:47.378Z,99534.78
2022-11-16T21:30:14.156Z,99532.28
2022-11-16T21:32:40.556Z,99523.28
2022-11-16T21:35:07.550Z,99515.53
2022-11-16T21:37:33.871Z,99516.50
2022-11-16T21:40:00.308Z,99509.56
2022-11-16T21:42:26.691Z,99499.16
2022-11-16T21:44:53.035Z,99498.31
2022-11-16T21:47:20.973Z,99490.56
2022-11-16T21:50:16.484Z,99474.78
2022-11-16T21:52:33.973Z,99471.31
2022-11-16T21:55:00.442Z,99462.59
2022-11-16T21:57:27.070Z,99468.94
2022-11-16T21:59:53.574Z,99459.25
2022-11-16T22:02:20.067Z,99464.53
2022-11-16T22:05:05.160Z,99449.69
2022-11-16T22:07:36.565Z,99447.06
2022-11-16T22:10:09.842Z,99442.78
2022-11-16T22:12:36.941Z,99442.06
2022-11-16T22:15:05.527Z,99426.28
2022-11-16T22:17:32.219Z,99426.28
2022-11-16T22:19:58.784Z,99422.81
2022-11-16T22:22:25.361Z,99415.06
2022-11-16T22:24:52.066Z,99402.72
2022-11-16T22:27:18.930Z,99400.25
2022-11-16T22:29:48.289Z,99389.59
2022-11-16T22:32:14.614Z,99384.47
2022-11-16T22:34:43.279Z,99371.59
2022-11-16T22:37:09.609Z,99362.69
2022-11-16T22:39:36.707Z,99354.81
2022-11-16T22:42:03.861Z,99359.09
2022-11-16T22:44:30.389Z,99344.28
2022-11-16T22:46:56.770Z,99341.78
2022-11-16T22:49:23.405Z,99326.88
2022-11-16T22:51:49.822Z,99330.47
2022-11-16T22:54:16.203Z,99329.59
2022-11-16T22:56:42.891Z,99323.53
2022-11-16T22:59:09.774Z,99299.84
2022-11-16T23:01:37.162Z,99299.72
2022-11-16T23:04:04.188Z,99282.25
2022-11-16T23:06:30.755Z,99280.47
2022-11-16T23:08:57.185Z,99279.63
2022-11-16T23:11:45.319Z,99268.28
2022-11-16T23:14:32.672Z,99262.31
2022-11-16T23:16:59.492Z,99251.69
2022-11-16T23:19:48.238Z,99244.63
2022-11-16T23:22:39.694Z,99253.31
2022-11-16T23:25:26.881Z,99238.38
2022-11-16T23:28:03.587Z,99239.34
2022-11-16T23:30:29.936Z,99230.50
2022-11-16T23:32:56.586Z,99229.13
2022-11-16T23:35:23.230Z,99237.00
2022-11-16T23:37:58.021Z,99209.03
2022-11-16T23:40:27.370Z,99199.47
2022-11-16T23:43:13.352Z,99202.81
2022-11-16T23:45:40.943Z,99176.50
2022-11-16T23:48:09.117Z,99171.25
2022-11-16T23:50:36.311Z,99151.84
2022-11-16T23:53:03.160Z,99146.88
2022-11-16T23:55:31.494Z,99131.91
2022-11-16T23:57:57.864Z,99123.91
